Time;durP1;ratioP1;P1;durP2;ratioP2;P2;SDS_P1;SDS_P2;PMS_P1;PMS_P2;Temp;Humidity;BMP_temperature;BMP_pressure;BME280_temperature;BME280_humidity;BME280_pressure;Samples;Min_cycle;Max_cycle;Signal;HPM_P1;HPM_P2
2023/10/04 00:01:07;;;;;;;18.25;7.63;;;;;;;-141.23;100.00;62281.09;5050381;28;20483;-80
2023/10/04 00:03:33;;;;;;;22.75;7.85;;;;;;;-141.23;100.00;62281.09;5050731;28;20055;-80
2023/10/04 00:05:59;;;;;;;12.35;5.60;;;;;;;-141.23;100.00;62281.09;5051534;28;20037;-79
2023/10/04 00:08:26;;;;;;;14.38;5.55;;;;;;;-141.23;100.00;62281.09;5050827;28;20467;-78
2023/10/04 00:10:52;;;;;;;13.40;5.10;;;;;;;-141.23;100.00;62281.09;5017685;28;20037;-77
2023/10/04 00:13:19;;;;;;;15.05;4.68;;;;;;;-141.23;100.00;62281.09;5050483;28;20049;-78
2023/10/04 00:15:46;;;;;;;10.20;4.53;;;;;;;-141.23;100.00;62281.09;5077162;28;20044;-78
2023/10/04 00:18:14;;;;;;;9.50;4.20;;;;;;;-141.23;100.00;62281.09;5063920;28;20453;-78
2023/10/04 00:20:40;;;;;;;16.60;4.95;;;;;;;-141.23;100.00;62281.09;5051373;28;20095;-78
2023/10/04 00:23:07;;;;;;;13.15;4.80;;;;;;;-141.23;100.00;62281.09;5050326;28;20041;-79
2023/10/04 00:25:33;;;;;;;11.60;4.68;;;;;;;-141.23;100.00;62281.09;5033809;28;20049;-79
2023/10/04 00:27:59;;;;;;;12.27;4.60;;;;;;;-141.23;100.00;62281.09;5050702;28;20131;-80
2023/10/04 00:30:29;;;;;;;8.93;4.25;;;;;;;-141.23;100.00;62281.09;5051301;28;20498;-75
2023/10/04 00:33:08;;;;;;;13.52;4.35;;;;;;;-141.23;100.00;62281.09;5052531;28;20114;-79
2023/10/04 00:35:40;;;;;;;12.77;4.28;;;;;;;-141.23;100.00;62281.09;5055694;28;20139;-80
2023/10/04 00:38:09;;;;;;;16.20;4.53;;;;;;;-141.23;100.00;62281.09;5071507;28;20037;-81
2023/10/04 00:40:37;;;;;;;10.52;4.28;;;;;;;-141.23;100.00;62281.09;5037951;28;20063;-80
2023/10/04 00:43:07;;;;;;;15.05;3.88;;;;;;;-141.23;100.00;62281.09;5037970;28;20056;-79
2023/10/04 00:45:34;;;;;;;10.57;4.22;;;;;;;-141.23;100.00;62281.09;5054652;28;20041;-80
2023/10/04 00:48:06;;;;;;;10.38;4.15;;;;;;;-141.23;100.00;62281.09;5037616;28;20041;-78
2023/10/04 00:50:33;;;;;;;8.85;4.57;;;;;;;-141.23;100.00;62281.09;5020718;28;20536;-78
2023/10/04 00:53:01;;;;;;;9.00;4.43;;;;;;;-141.23;100.00;62281.09;5037207;28;20068;-77
2023/10/04 00:55:29;;;;;;;12.20;4.38;;;;;;;-141.23;100.00;62281.09;5053583;28;20055;-74
2023/10/04 00:57:56;;;;;;;14.68;5.05;;;;;;;-141.23;100.00;62281.09;5055036;28;20044;-78
2023/10/04 01:00:24;;;;;;;13.23;4.63;;;;;;;-141.23;100.00;62281.09;5037464;28;20075;-78
2023/10/04 01:02:50;;;;;;;13.05;4.38;;;;;;;16.03;88.09;98943.78;5070437;28;20056;-79
2023/10/04 01:05:16;;;;;;;11.55;4.28;;;;;;;16.07;87.66;98951.19;5037311;28;20040;-78
2023/10/04 01:07:43;;;;;;;12.55;4.40;;;;;;;16.13;88.02;98941.50;5053545;28;20083;-79
2023/10/04 01:10:16;;;;;;;12.05;4.85;;;;;;;16.05;88.16;98934.50;5054800;28;20048;-78
2023/10/04 01:12:46;;;;;;;11.45;4.32;;;;;;;16.10;88.30;98928.50;5070807;28;20071;-78
2023/10/04 01:17:57;;;;;;;12.98;4.63;;;;;;;16.17;88.18;98937.38;5040563;28;20041;-77
2023/10/04 01:20:24;;;;;;;;;;;;;;;16.19;88.08;98913.88;5039404;28;20045;-78
2023/10/04 01:22:51;;;;;;;8.45;4.35;;;;;;;16.05;88.12;98937.19;5037207;28;19927;-78
2023/10/04 01:25:19;;;;;;;12.35;5.13;;;;;;;15.99;88.54;98931.88;5053391;28;20475;-78
2023/10/04 01:27:45;;;;;;;10.77;5.00;;;;;;;15.96;88.97;98929.59;5016167;28;20084;-77
2023/10/04 01:30:13;;;;;;;11.15;5.18;;;;;;;16.04;88.91;98926.69;4999985;28;20168;-79
2023/10/04 01:32:39;;;;;;;15.52;4.70;;;;;;;16.07;88.48;98905.66;5033079;28;20049;-78
2023/10/04 01:35:08;;;;;;;19.58;4.90;;;;;;;16.06;88.20;98914.75;5032982;28;20106;-79
2023/10/04 01:37:38;;;;;;;11.85;4.65;;;;;;;16.01;88.48;98905.66;5032744;28;20275;-79
2023/10/04 01:40:12;;;;;;;10.85;4.63;;;;;;;16.06;88.59;98911.22;5032480;28;20056;-78
2023/10/04 01:42:41;;;;;;;9.65;4.97;;;;;;;16.08;88.55;98899.25;5032219;28;20076;-79
2023/10/04 01:45:12;;;;;;;14.20;5.00;;;;;;;15.99;89.17;98911.25;5030648;28;20117;-80
2023/10/04 01:47:41;;;;;;;12.77;4.90;;;;;;;15.91;89.17;98895.41;5031814;28;20050;-79
2023/10/04 01:50:09;;;;;;;10.77;4.50;;;;;;;15.91;89.50;98906.13;4993453;28;20058;-79
2023/10/04 01:52:38;;;;;;;12.35;5.10;;;;;;;15.84;89.82;98883.88;4962839;28;20043;-77
2023/10/04 01:55:05;;;;;;;20.00;4.82;;;;;;;15.92;89.82;98896.22;4976378;28;20062;-78
2023/10/04 01:57:33;;;;;;;14.93;5.00;;;;;;;15.95;89.72;98869.84;4945018;28;20039;-77
2023/10/04 01:59:59;;;;;;;13.95;4.45;;;;;;;15.89;89.53;98888.59;4995816;28;20568;-78
2023/10/04 02:02:25;;;;;;;11.77;4.38;;;;;;;15.82;89.64;98880.59;4999033;28;20101;-79
2023/10/04 02:04:54;;;;;;;12.05;4.28;;;;;;;15.72;90.22;98882.06;5012779;28;20103;-80
2023/10/04 02:07:23;;;;;;;8.77;4.28;;;;;;;15.77;90.13;98876.91;5011710;28;20049;-78
2023/10/04 02:09:52;;;;;;;8.70;4.30;;;;;;;15.95;89.98;98877.06;4979660;28;20053;-78
2023/10/04 02:12:18;;;;;;;13.23;4.85;;;;;;;15.84;89.92;98856.28;4979312;28;20500;-79
2023/10/04 02:14:48;;;;;;;16.10;4.90;;;;;;;16.02;89.88;98867.16;4963328;28;20176;-79
2023/10/04 02:17:18;;;;;;;;;;;;;;;16.15;89.00;98873.28;4996210;28;20046;-79
2023/10/04 02:19:44;;;;;;;15.77;4.70;;;;;;;15.82;89.96;98863.72;4995127;28;19972;-81
2023/10/04 02:22:10;;;;;;;12.77;4.82;;;;;;;15.91;89.52;98863.28;5013941;28;20057;-78
2023/10/04 02:24:40;;;;;;;10.75;4.40;;;;;;;15.77;89.97;98860.84;5048666;28;20139;-80
2023/10/04 02:27:09;;;;;;;16.13;4.63;;;;;;;15.75;90.47;98861.03;5032239;28;20119;-79
2023/10/04 02:29:36;;;;;;;12.15;5.43;;;;;;;15.76;90.47;98856.53;5016066;28;20440;-80
2023/10/04 02:32:10;;;;;;;11.52;4.55;;;;;;;15.71;91.07;98853.66;5032360;28;20045;-79
2023/10/04 02:34:38;;;;;;;13.48;4.50;;;;;;;15.69;91.06;98837.78;5032113;28;20041;-81
2023/10/04 02:37:07;;;;;;;10.10;4.50;;;;;;;15.71;90.69;98840.25;5032026;28;20375;-81
2023/10/04 02:39:37;;;;;;;16.90;4.63;;;;;;;15.75;91.10;98855.69;4999368;28;20056;-77
2023/10/04 02:42:12;;;;;;;12.93;4.70;;;;;;;15.74;91.18;98838.00;5031922;28;20037;-75
2023/10/04 02:44:39;;;;;;;13.55;4.80;;;;;;;15.66;91.09;98821.31;4999933;28;20042;-81
2023/10/04 02:47:08;;;;;;;13.50;5.05;;;;;;;15.76;91.27;98813.69;5016006;28;20041;-77
2023/10/04 02:49:39;;;;;;;16.33;5.22;;;;;;;15.77;90.93;98826.88;5031746;28;20116;-77
2023/10/04 02:52:08;;;;;;;9.25;4.80;;;;;;;15.79;90.93;98823.97;5035085;28;20056;-77
2023/10/04 02:54:34;;;;;;;15.57;4.72;;;;;;;15.70;90.97;98817.22;5034527;28;20503;-74
2023/10/04 02:57:00;;;;;;;11.45;4.93;;;;;;;15.62;91.10;98814.75;5033935;28;20045;-78
2023/10/04 02:59:27;;;;;;;13.82;5.07;;;;;;;15.66;91.02;98811.44;5050190;28;20074;-80
2023/10/04 03:01:54;;;;;;;10.90;5.40;;;;;;;15.64;91.27;98810.81;5050427;28;20952;-79
2023/10/04 03:04:21;;;;;;;9.50;4.68;;;;;;;15.64;91.02;98812.66;5044248;28;20486;-79
2023/10/04 03:06:51;;;;;;;10.10;4.88;;;;;;;15.69;91.01;98805.66;5037197;28;20045;-78
2023/10/04 03:09:17;;;;;;;13.57;5.22;;;;;;;15.72;91.09;98818.63;5053408;28;20466;-77
2023/10/04 03:11:43;;;;;;;12.93;5.07;;;;;;;15.66;91.17;98787.34;5003920;28;20118;-80
2023/10/04 03:14:11;;;;;;;11.65;5.18;;;;;;;15.63;91.17;98798.47;5004088;28;20049;-70
2023/10/04 03:16:40;;;;;;;13.25;4.97;;;;;;;15.76;91.30;98795.75;5069728;28;20072;-70
2023/10/04 03:19:07;;;;;;;10.00;4.50;;;;;;;15.74;90.84;98805.03;5053442;28;20037;-70
2023/10/04 03:21:34;;;;;;;12.50;4.78;;;;;;;15.67;91.06;98796.22;5069927;28;20056;-71
2023/10/04 03:24:10;;;;;;;12.52;4.88;;;;;;;15.81;91.38;98777.19;5050926;28;20119;-69
2023/10/04 03:26:37;;;;;;;12.50;5.68;;;;;;;15.79;91.03;98806.03;5034071;28;20359;-70
2023/10/04 03:29:07;;;;;;;12.18;5.25;;;;;;;15.93;91.13;98786.22;5018358;28;20442;-69
2023/10/04 03:31:33;;;;;;;10.70;5.20;;;;;;;15.85;90.50;98785.63;5034249;28;20095;-69
2023/10/04 03:34:00;;;;;;;9.10;4.70;;;;;;;15.79;90.55;98789.16;5034505;28;20340;-70
2023/10/04 03:36:29;;;;;;;8.25;4.75;;;;;;;15.88;90.14;98782.53;5050465;28;20045;-70
2023/10/04 03:39:03;;;;;;;15.20;5.75;;;;;;;15.93;89.80;98767.47;5018608;28;20052;-70
2023/10/04 03:41:30;;;;;;;11.13;4.85;;;;;;;15.99;89.94;98774.66;5050534;28;20105;-70
2023/10/04 03:44:05;;;;;;;10.73;4.70;;;;;;;15.93;89.92;98785.41;5050636;28;20101;-70
2023/10/04 03:46:32;;;;;;;12.35;4.88;;;;;;;15.93;89.92;98780.06;5050668;28;20543;-69
2023/10/04 03:49:01;;;;;;;13.80;5.65;;;;;;;15.86;90.21;98765.84;5050321;28;20219;-69
2023/10/04 03:51:29;;;;;;;13.73;5.30;;;;;;;15.92;90.06;98768.50;5034290;28;20098;-69
2023/10/04 03:53:58;;;;;;;15.52;5.03;;;;;;;15.96;89.95;98758.19;5017710;28;20044;-69
2023/10/04 03:56:27;;;;;;;11.00;5.45;;;;;;;15.93;90.02;98755.94;5034368;28;20258;-70
2023/10/04 03:58:54;;;;;;;13.55;5.60;;;;;;;15.93;89.86;98759.44;5017181;28;20044;-68
2023/10/04 04:01:20;;;;;;;18.00;5.25;;;;;;;15.97;89.65;98763.34;5017168;28;20080;-69
2023/10/04 04:03:48;;;;;;;11.73;4.75;;;;;;;15.96;89.65;98761.69;5033006;28;20142;-69
2023/10/04 04:06:14;;;;;;;14.32;5.50;;;;;;;15.97;89.27;98766.03;5049977;28;20048;-69
2023/10/04 04:08:42;;;;;;;11.98;4.78;;;;;;;15.98;89.18;98746.22;5048125;28;20064;-69
2023/10/04 04:11:08;;;;;;;14.77;5.50;;;;;;;16.02;89.57;98760.03;5033622;28;20128;-69
2023/10/04 04:13:35;;;;;;;14.38;4.97;;;;;;;16.00;89.31;98754.06;5049835;28;20132;-69
2023/10/04 04:16:09;;;;;;;14.32;5.68;;;;;;;16.07;89.25;98744.09;5065931;28;20080;-69
2023/10/04 04:18:37;;;;;;;11.20;4.88;;;;;;;16.07;88.92;98749.47;5050569;28;20052;-70
2023/10/04 04:21:05;;;;;;;11.45;5.03;;;;;;;16.09;88.62;98737.53;5033632;28;20049;-70
2023/10/04 04:23:32;;;;;;;13.65;5.35;;;;;;;16.06;88.72;98729.91;5033746;28;20067;-69
2023/10/04 04:26:00;;;;;;;10.48;5.10;;;;;;;16.10;88.36;98752.53;5017054;28;20382;-70
2023/10/04 04:28:26;;;;;;;11.07;5.25;;;;;;;16.06;88.14;98737.94;5066570;28;20049;-70
2023/10/04 04:30:53;;;;;;;14.77;4.85;;;;;;;16.11;88.16;98764.94;5033259;28;20343;-72
2023/10/04 04:33:25;;;;;;;12.40;5.07;;;;;;;16.08;87.85;98738.53;5049745;28;20332;-71
2023/10/04 04:35:52;;;;;;;13.05;5.00;;;;;;;16.10;87.80;98759.75;5001186;28;20439;-73
2023/10/04 04:38:20;;;;;;;10.18;4.88;;;;;;;16.18;87.18;98714.78;5033577;28;20041;-70
2023/10/04 04:40:48;;;;;;;11.15;4.75;;;;;;;16.27;87.26;98750.19;5033110;28;20106;-70
2023/10/04 04:43:26;;;;;;;10.88;5.35;;;;;;;16.22;86.83;98737.44;5049721;28;20053;-70
2023/10/04 04:45:58;;;;;;;12.23;5.00;;;;;;;16.24;86.66;98730.00;5049765;28;20049;-71
2023/10/04 04:48:35;;;;;;;10.68;5.40;;;;;;;16.39;85.83;98721.69;5049709;28;20135;-70
2023/10/04 04:53:39;;;;;;;15.93;5.03;;;;;;;16.52;84.78;98749.22;5034329;28;20131;-71
2023/10/04 04:56:13;;;;;;;14.35;4.97;;;;;;;16.61;84.29;98714.91;5066190;28;20140;-72
2023/10/04 04:58:49;;;;;;;11.02;5.20;;;;;;;16.72;83.70;98707.00;5049900;28;20428;-72
2023/10/04 05:01:17;;;;;;;13.15;5.03;;;;;;;16.62;82.96;98732.66;5016679;28;20152;-71
2023/10/04 05:03:50;;;;;;;17.13;5.50;;;;;;;16.72;82.49;98741.84;5033028;28;20041;-71
2023/10/04 05:06:22;;;;;;;17.90;5.00;;;;;;;16.82;81.76;98762.81;5049615;28;20454;-72
2023/10/04 05:08:50;;;;;;;14.25;5.38;;;;;;;16.94;81.66;98717.31;5034065;28;20045;-72
2023/10/04 05:11:17;;;;;;;11.75;5.15;;;;;;;16.79;81.48;98713.13;5027890;28;20321;-71
2023/10/04 05:13:44;;;;;;;12.30;5.20;;;;;;;16.98;80.73;98689.84;4977135;28;20123;-71
2023/10/04 05:16:10;;;;;;;14.88;5.28;;;;;;;17.06;79.53;98745.06;4993609;28;20462;-71
2023/10/04 05:18:37;;;;;;;15.43;5.00;;;;;;;17.05;79.51;98695.97;5028376;28;20041;-72
2023/10/04 05:21:04;;;;;;;18.67;5.10;;;;;;;17.16;79.17;98697.88;5014453;28;20427;-72
2023/10/04 05:23:30;;;;;;;15.60;5.53;;;;;;;17.09;79.38;98682.91;5015702;28;20071;-72
2023/10/04 05:25:58;;;;;;;12.05;5.32;;;;;;;17.21;78.56;98710.63;4999304;28;20483;-72
2023/10/04 05:28:24;;;;;;;18.10;5.75;;;;;;;17.27;78.29;98681.06;4999427;28;20911;-70
2023/10/04 05:30:51;;;;;;;15.40;5.25;;;;;;;17.45;77.81;98666.84;4999252;28;20156;-72
2023/10/04 05:33:22;;;;;;;20.33;5.68;;;;;;;17.42;77.13;98683.38;5015438;28;20052;-72
2023/10/04 05:35:52;;;;;;;13.90;4.78;;;;;;;17.54;76.78;98673.56;5015317;28;20096;-72
2023/10/04 05:38:19;;;;;;;15.88;5.05;;;;;;;17.42;76.61;98669.97;5031760;28;20063;-71
2023/10/04 05:40:48;;;;;;;13.02;5.80;;;;;;;17.48;76.33;98669.88;5014933;28;20051;-71
2023/10/04 05:43:15;;;;;;;16.23;5.60;;;;;;;17.54;75.99;98705.78;5048556;28;20064;-71
2023/10/04 05:45:42;;;;;;;15.32;6.05;;;;;;;17.55;75.68;98700.16;5020206;28;20066;-72
2023/10/04 05:48:12;;;;;;;16.33;6.22;;;;;;;17.76;74.99;98683.56;5052900;28;20411;-73
2023/10/04 05:50:39;;;;;;;14.43;5.95;;;;;;;17.76;74.37;98690.84;5052740;28;20056;-72
2023/10/04 05:53:08;;;;;;;14.80;6.20;;;;;;;17.79;73.99;98661.63;5036236;28;20125;-73
2023/10/04 05:55:37;;;;;;;17.80;5.85;;;;;;;17.91;73.28;98677.81;5036571;28;20048;-72
2023/10/04 05:58:08;;;;;;;16.40;5.82;;;;;;;18.01;72.69;98661.94;5052490;28;20150;-71
2023/10/04 06:00:42;;;;;;;17.27;5.38;;;;;;;18.04;72.16;98674.91;5068691;28;20512;-71
2023/10/04 06:03:11;;;;;;;20.52;5.63;;;;;;;18.00;71.87;98660.31;5036982;28;20045;-72
2023/10/04 06:05:42;;;;;;;16.73;5.37;;;;;;;18.19;71.40;98637.69;5049488;28;20436;-72
2023/10/04 06:08:21;;;;;;;10.90;5.38;;;;;;;18.39;70.80;98640.91;5007286;28;20114;-71
2023/10/04 06:10:48;;;;;;;15.88;5.47;;;;;;;18.42;69.80;98633.22;5041488;28;20065;-71
2023/10/04 06:13:17;;;;;;;13.57;5.45;;;;;;;18.52;68.70;98626.44;5042319;28;20045;-72
2023/10/04 06:15:48;;;;;;;11.63;5.30;;;;;;;18.84;68.70;98630.41;5042880;28;20037;-72
2023/10/04 06:18:17;;;;;;;21.20;5.47;;;;;;;18.78;67.97;98617.91;5043270;28;20494;-72
2023/10/04 06:20:44;;;;;;;15.07;5.80;;;;;;;18.69;67.58;98614.75;5041394;28;20064;-74
2023/10/04 06:23:14;;;;;;;17.00;5.97;;;;;;;18.58;67.57;98682.81;5042290;28;20114;-72
2023/10/04 06:25:46;;;;;;;13.23;6.10;;;;;;;18.81;67.08;98628.19;5052812;28;20578;-73
2023/10/04 06:28:12;;;;;;;15.93;5.97;;;;;;;18.81;66.42;98622.81;5036064;28;20075;-73
2023/10/04 06:30:39;;;;;;;13.18;5.78;;;;;;;18.89;66.20;98658.25;5051683;28;20501;-73
2023/10/04 06:33:11;;;;;;;19.55;5.30;;;;;;;18.88;66.36;98597.41;5052919;28;20056;-75
2023/10/04 06:35:39;;;;;;;16.65;5.78;;;;;;;18.94;65.80;98633.34;5035322;28;20083;-74
2023/10/04 06:38:07;;;;;;;14.85;6.18;;;;;;;18.94;65.38;98644.09;5035435;28;20037;-73
2023/10/04 06:40:34;;;;;;;14.88;5.63;;;;;;;18.93;64.75;98623.63;5032307;28;20076;-73
2023/10/04 06:43:06;;;;;;;15.35;5.60;;;;;;;19.26;64.35;98651.56;4999329;28;20051;-74
2023/10/04 06:45:34;;;;;;;16.02;5.93;;;;;;;19.26;63.45;98637.25;5033169;28;20046;-74
2023/10/04 06:48:04;;;;;;;10.15;5.30;;;;;;;19.34;62.94;98602.72;5025658;28;20328;-73
2023/10/04 06:50:40;;;;;;;18.27;6.10;;;;;;;19.38;62.81;98571.59;4991772;28;20063;-73
2023/10/04 06:53:07;;;;;;;12.15;5.55;;;;;;;19.64;62.09;98591.72;5026711;28;20041;-74
2023/10/04 06:55:34;;;;;;;17.25;5.75;;;;;;;19.69;61.90;98567.59;5085146;28;20212;-73
2023/10/04 06:58:01;;;;;;;20.52;6.32;;;;;;;19.79;60.66;98556.97;5059329;28;20045;-74
2023/10/04 07:00:35;;;;;;;21.52;5.32;;;;;;;19.91;60.37;98566.63;5041700;28;20049;-74
2023/10/04 07:03:05;;;;;;;17.90;5.55;;;;;;;20.38;59.70;98571.75;5049260;28;20123;-76
2023/10/04 07:05:39;;;;;;;16.58;5.95;;;;;;;20.56;58.49;98563.41;5007274;28;20049;-74
2023/10/04 07:08:08;;;;;;;12.38;5.47;;;;;;;20.78;57.16;98593.94;5023957;28;20452;-75
2023/10/04 07:10:36;;;;;;;18.08;5.43;;;;;;;20.64;56.70;98574.56;5024271;28;20037;-73
2023/10/04 07:13:02;;;;;;;36.40;5.88;;;;;;;20.35;57.05;98627.00;5041672;28;20061;-73
2023/10/04 07:15:35;;;;;;;15.23;5.90;;;;;;;20.46;56.72;98590.22;5040828;28;20099;-72
2023/10/04 07:18:06;;;;;;;22.40;5.40;;;;;;;20.56;56.72;98628.94;5041202;28;20075;-74
2023/10/04 07:20:33;;;;;;;16.55;5.97;;;;;;;20.29;56.75;98601.00;5040477;28;20071;-74
2023/10/04 07:23:03;;;;;;;27.08;6.03;;;;;;;20.14;57.24;98538.75;5023294;28;20069;-74
2023/10/04 07:25:30;;;;;;;13.05;6.10;;;;;;;19.94;57.50;98543.78;5013578;28;20487;-70
2023/10/04 07:27:57;;;;;;;15.57;5.32;;;;;;;20.12;57.53;98532.75;5050947;28;20056;-70
2023/10/04 07:30:25;;;;;;;12.48;5.63;;;;;;;20.21;56.96;98511.63;5067460;28;20384;-70
2023/10/04 07:32:54;;;;;;;13.70;5.63;;;;;;;20.19;57.14;98519.16;5067126;28;20055;-70
2023/10/04 07:35:27;;;;;;;14.43;5.68;;;;;;;20.35;56.90;98550.66;5067028;28;20073;-70
2023/10/04 07:37:54;;;;;;;16.00;5.95;;;;;;;20.40;56.52;98605.50;5052187;28;20059;-70
2023/10/04 07:40:24;;;;;;;15.30;5.82;;;;;;;20.65;56.25;98508.75;5017937;28;20444;-70
2023/10/04 07:42:54;;;;;;;17.27;5.60;;;;;;;20.76;55.46;98493.50;5050103;28;20495;-70
2023/10/04 07:45:28;;;;;;;15.10;5.82;;;;;;;20.83;54.71;98499.53;5067140;28;20049;-70
2023/10/04 07:47:56;;;;;;;16.35;5.80;;;;;;;20.90;54.65;98540.66;5066740;28;20138;-70
2023/10/04 07:50:22;;;;;;;12.85;5.43;;;;;;;21.06;53.84;98500.16;5050679;28;20037;-69
2023/10/04 07:52:51;;;;;;;11.85;5.85;;;;;;;20.95;53.94;98519.13;5050939;28;20471;-70
2023/10/04 07:55:22;;;;;;;15.95;6.00;;;;;;;20.97;54.22;98484.63;5045650;28;20048;-70
2023/10/04 07:57:50;;;;;;;15.43;6.10;;;;;;;21.14;53.10;98502.38;5041451;28;20047;-70
2023/10/04 08:00:16;;;;;;;18.15;5.78;;;;;;;21.26;52.77;98472.53;5020834;28;20442;-70
2023/10/04 08:02:50;;;;;;;15.50;5.82;;;;;;;21.73;51.56;98478.94;5045320;28;20048;-70
2023/10/04 08:05:20;;;;;;;17.33;5.78;;;;;;;21.96;50.22;98491.31;5007615;28;20037;-70
2023/10/04 08:07:51;;;;;;;15.90;6.03;;;;;;;22.59;48.55;98473.09;5050643;28;20127;-70
2023/10/04 08:10:18;;;;;;;25.08;7.13;;;;;;;22.62;48.18;98472.56;5052193;28;20279;-70
2023/10/04 08:12:45;;;;;;;20.42;6.60;;;;;;;22.52;48.36;98482.53;5043289;28;20510;-71
2023/10/04 08:15:15;;;;;;;19.90;6.80;;;;;;;22.28;48.69;98471.25;5040899;28;20045;-70
2023/10/04 08:17:43;;;;;;;19.98;5.97;;;;;;;21.83;49.87;98454.72;5026038;28;20045;-70
2023/10/04 08:20:14;;;;;;;19.17;6.85;;;;;;;21.92;50.25;98466.69;5022543;28;20360;-71
2023/10/04 08:22:44;;;;;;;14.80;6.05;;;;;;;22.04;49.74;98480.00;5041279;28;20115;-70
2023/10/04 08:25:12;;;;;;;16.83;6.38;;;;;;;21.86;50.42;98469.59;5021681;28;20053;-70
2023/10/04 08:27:39;;;;;;;24.85;6.57;;;;;;;21.72;50.56;98474.59;5042307;28;20045;-71
2023/10/04 08:30:12;;;;;;;26.42;6.78;;;;;;;21.77;50.61;98499.00;5039869;28;20048;-70
2023/10/04 08:32:59;;;;;;;15.27;6.10;;;;;;;21.62;50.72;98452.88;5041210;28;20045;-70
2023/10/04 08:35:25;;;;;;;14.95;5.70;;;;;;;21.60;50.62;98466.66;5041530;28;20404;-71
2023/10/04 08:37:54;;;;;;;17.38;6.60;;;;;;;21.67;50.65;98469.16;5036524;28;20045;-72
2023/10/04 08:40:25;;;;;;;17.33;6.43;;;;;;;21.54;50.44;98481.19;5040992;28;20047;-71
2023/10/04 08:42:51;;;;;;;14.27;5.43;;;;;;;21.58;50.70;98498.53;5037671;28;20439;-71
2023/10/04 08:45:19;;;;;;;17.08;5.78;;;;;;;21.67;50.70;98483.47;5021539;28;20041;-70
2023/10/04 08:47:52;;;;;;;15.40;5.82;;;;;;;21.92;50.01;98464.00;5030902;28;20053;-70
2023/10/04 08:50:27;;;;;;;13.82;5.93;;;;;;;22.27;49.17;98487.75;4997624;28;20095;-70
2023/10/04 08:53:00;;;;;;;33.75;6.78;;;;;;;22.50;48.10;98531.47;5036112;28;20045;-70
2023/10/04 08:55:27;;;;;;;20.42;6.43;;;;;;;22.68;47.22;98460.69;5075791;28;20033;-69
2023/10/04 08:57:53;;;;;;;20.98;7.18;;;;;;;22.74;47.13;98464.25;5087649;28;20045;-73
2023/10/04 09:00:24;;;;;;;23.40;7.05;;;;;;;23.13;46.26;98463.56;5053551;28;20056;-70
2023/10/04 09:02:50;;;;;;;12.80;6.47;;;;;;;23.09;45.96;98445.41;5053900;28;20394;-70
2023/10/04 09:05:23;;;;;;;22.02;6.45;;;;;;;23.69;45.33;98437.41;5054842;28;20045;-70
2023/10/04 09:07:53;;;;;;;17.98;6.07;;;;;;;24.72;42.72;98439.41;5003496;28;20048;-70
2023/10/04 09:10:19;;;;;;;25.37;6.40;;;;;;;25.43;40.40;98472.47;5044207;28;20049;-71
2023/10/04 09:12:48;;;;;;;15.60;6.65;;;;;;;25.45;39.50;98442.31;5059970;28;20348;-70
2023/10/04 09:15:14;;;;;;;22.38;6.82;;;;;;;25.39;38.98;98448.84;4995474;28;20056;-71
2023/10/04 09:17:47;;;;;;;17.85;6.43;;;;;;;25.37;39.33;98421.16;5043177;28;20045;-72
2023/10/04 09:20:15;;;;;;;17.73;7.18;;;;;;;25.52;38.70;98451.78;5043477;28;20044;-72
2023/10/04 09:22:41;;;;;;;20.15;7.75;;;;;;;25.76;37.56;98471.72;5043407;28;20041;-73
2023/10/04 09:25:09;;;;;;;24.08;7.55;;;;;;;25.88;37.54;98449.56;5059287;28;20044;-71
2023/10/04 09:27:34;;;;;;;21.63;6.45;;;;;;;26.56;36.46;98412.97;5044057;28;20040;-71
2023/10/04 09:30:02;;;;;;;21.40;8.05;;;;;;;26.80;35.55;98416.50;5031303;28;20033;-71
2023/10/04 09:32:38;;;;;;;26.77;7.90;;;;;;;26.94;35.32;98405.72;5026704;28;20525;-70
2023/10/04 09:35:05;;;;;;;22.05;7.00;;;;;;;25.71;36.64;98383.91;5016781;28;20052;-70
2023/10/04 09:37:32;;;;;;;25.45;7.07;;;;;;;24.80;38.47;98360.06;5043521;28;20387;-70
2023/10/04 09:40:08;;;;;;;24.70;7.05;;;;;;;23.91;40.34;98494.06;5008874;28;20506;-70
2023/10/04 09:42:47;;;;;;;31.25;7.10;;;;;;;23.47;41.56;98404.31;5042026;28;20052;-70
2023/10/04 09:45:13;;;;;;;17.75;6.75;;;;;;;23.20;42.01;98350.34;5043700;28;20577;-70
2023/10/04 09:47:39;;;;;;;18.40;6.20;;;;;;;23.28;42.41;98433.00;5033661;28;20033;-69
2023/10/04 09:50:13;;;;;;;20.73;6.65;;;;;;;23.71;42.01;98391.03;5069340;28;20040;-70
2023/10/04 09:52:38;;;;;;;22.85;5.90;;;;;;;23.85;41.49;98360.38;5053115;28;20067;-70
2023/10/04 09:55:08;;;;;;;14.43;5.55;;;;;;;24.41;40.33;98371.91;5054019;28;20475;-70
2023/10/04 09:57:36;;;;;;;14.25;7.70;;;;;;;25.02;39.13;98464.81;5053812;28;20071;-70
2023/10/04 10:00:12;;;;;;;28.65;6.18;;;;;;;25.28;38.81;98355.66;5052840;28;20056;-71
2023/10/04 10:02:39;;;;;;;21.52;6.38;;;;;;;25.25;38.23;98374.47;5052728;28;20049;-70
2023/10/04 10:05:09;;;;;;;18.50;6.55;;;;;;;25.60;37.67;98410.34;5053043;28;20048;-70
2023/10/04 10:07:36;;;;;;;15.98;6.63;;;;;;;26.19;36.87;98389.16;5053360;28;20138;-69
2023/10/04 10:10:05;;;;;;;25.08;6.40;;;;;;;26.70;35.13;98380.41;5053687;28;20055;-71
2023/10/04 10:12:36;;;;;;;17.88;6.18;;;;;;;27.17;34.33;98350.34;5053397;28;20049;-69
2023/10/04 10:15:07;;;;;;;22.50;6.72;;;;;;;27.77;33.29;98368.44;5035921;28;20052;-74
2023/10/04 10:17:35;;;;;;;18.15;6.63;;;;;;;28.00;32.54;98413.91;5020148;28;20545;-71
2023/10/04 10:20:03;;;;;;;29.35;6.85;;;;;;;28.23;32.04;98352.84;5028659;28;20033;-71
2023/10/04 10:22:30;;;;;;;19.92;6.15;;;;;;;27.98;32.04;98443.44;5016536;28;20171;-71
2023/10/04 10:24:56;;;;;;;15.63;6.22;;;;;;;27.68;32.51;98349.22;5017257;28;20066;-71
2023/10/04 10:27:28;;;;;;;24.55;6.55;;;;;;;27.74;32.48;98371.75;5018118;28;20106;-70
2023/10/04 10:30:05;;;;;;;18.50;6.25;;;;;;;27.19;33.30;98362.56;5018014;28;20136;-70
2023/10/04 10:32:32;;;;;;;15.15;6.07;;;;;;;26.26;34.30;98388.84;5016753;28;20160;-70
2023/10/04 10:35:01;;;;;;;19.33;6.95;;;;;;;25.83;35.67;98378.91;5017769;28;20132;-70
2023/10/04 10:37:29;;;;;;;16.83;6.28;;;;;;;25.09;37.03;98330.28;5001389;28;20072;-71
2023/10/04 10:39:56;;;;;;;14.50;5.97;;;;;;;24.66;38.67;98359.06;5017450;28;21385;-70
2023/10/04 10:42:23;;;;;;;30.75;6.68;;;;;;;24.53;39.24;98362.34;4996899;28;20055;-70
2023/10/04 10:44:50;;;;;;;35.30;7.57;;;;;;;23.91;40.28;98329.44;5017729;28;20037;-70
2023/10/04 10:47:21;;;;;;;26.73;6.28;;;;;;;23.46;41.73;98364.75;5001043;28;20078;-70
2023/10/04 10:49:50;;;;;;;20.90;6.97;;;;;;;23.53;42.00;98324.63;5000998;28;20131;-71
2023/10/04 10:52:21;;;;;;;19.50;5.70;;;;;;;23.42;42.49;98330.34;4984181;28;20041;-70
2023/10/04 10:54:48;;;;;;;13.52;5.80;;;;;;;23.16;43.30;98333.00;5016547;28;20048;-72
2023/10/04 10:57:14;;;;;;;12.32;5.70;;;;;;;22.89;43.93;98348.69;5042094;28;20045;-72
2023/10/04 10:59:40;;;;;;;17.02;6.65;;;;;;;22.80;45.04;98306.97;5040236;28;20038;-70
2023/10/04 11:02:06;;;;;;;16.20;5.90;;;;;;;22.60;45.93;98304.22;5048173;28;20041;-70
2023/10/04 11:04:32;;;;;;;14.63;5.60;;;;;;;22.54;45.88;98356.69;5000252;28;20275;-70
2023/10/04 11:06:58;;;;;;;17.45;6.57;;;;;;;22.57;46.03;98371.59;5049497;28;20508;-71
2023/10/04 11:09:24;;;;;;;16.50;5.95;;;;;;;22.69;46.24;98321.59;5018131;28;20041;-71
2023/10/04 11:11:51;;;;;;;16.13;6.35;;;;;;;22.60;46.19;98380.00;5049972;28;20344;-71
2023/10/04 11:14:19;;;;;;;23.23;5.88;;;;;;;22.59;46.44;98386.50;5051508;28;20048;-71
2023/10/04 11:16:45;;;;;;;16.55;5.95;;;;;;;22.42;47.20;98320.13;5018186;28;20048;-72
2023/10/04 11:19:12;;;;;;;13.93;5.72;;;;;;;22.24;47.42;98351.16;4982060;28;20045;-71
2023/10/04 11:21:40;;;;;;;19.63;6.32;;;;;;;22.40;47.19;98382.56;4981894;28;20122;-70
2023/10/04 11:24:09;;;;;;;12.95;6.05;;;;;;;22.43;47.02;98375.84;4981072;28;20123;-70
2023/10/04 11:26:40;;;;;;;17.63;6.03;;;;;;;22.42;47.49;98358.78;4979697;28;20053;-70
2023/10/04 11:29:07;;;;;;;18.55;5.88;;;;;;;22.27;47.57;98344.38;5028434;28;20069;-71
2023/10/04 11:31:33;;;;;;;27.80;6.13;;;;;;;21.98;48.78;98353.97;5012458;28;20059;-70
2023/10/04 11:34:00;;;;;;;17.60;6.40;;;;;;;21.70;49.77;98393.78;4980083;28;20057;-70
2023/10/04 11:36:27;;;;;;;35.45;6.93;;;;;;;21.94;49.67;98432.06;4982114;28;20080;-70